Time;durP1;ratioP1;P1;durP2;ratioP2;P2;SDS_P1;SDS_P2;PMS_P1;PMS_P2;Temp;Humidity;BMP_temperature;BMP_pressure;BME280_temperature;BME280_humidity;BME280_pressure;Samples;Min_cycle;Max_cycle;Signal;HPM_P1;HPM_P2
2024/01/14 00:00:07;;;;;;;33.47;21.63;;;;;;;-7.12;63.38;93293.78;523524;28;1003;-67
2024/01/14 00:00:22;;;;;;;33.45;21.33;;;;;;;-7.11;62.99;93289.91;522397;28;955;-67
2024/01/14 00:00:38;;;;;;;36.20;21.57;;;;;;;-7.09;63.21;93292.91;523643;28;758;-67
2024/01/14 00:00:54;;;;;;;36.50;21.45;;;;;;;-7.09;63.26;93288.28;523834;28;1148;-67
2024/01/14 00:01:15;;;;;;;35.45;21.08;;;;;;;-7.09;63.07;93301.72;523870;28;854;-67
2024/01/14 00:01:31;;;;;;;33.63;21.13;;;;;;;-7.11;63.30;93297.97;523691;28;924;-67
2024/01/14 00:01:46;;;;;;;37.00;22.70;;;;;;;-7.12;62.86;93301.81;523978;28;794;-67
2024/01/14 00:02:02;;;;;;;35.97;22.37;;;;;;;-7.15;63.31;93286.63;523972;28;782;-67
2024/01/14 00:02:17;;;;;;;33.28;21.80;;;;;;;-7.09;63.08;93292.91;523822;28;1143;-67
2024/01/14 00:02:33;;;;;;;35.00;21.33;;;;;;;-7.09;62.86;93290.97;522983;28;1412;-67
2024/01/14 00:02:48;;;;;;;35.72;21.02;;;;;;;-7.06;63.18;93286.66;522742;28;770;-68
2024/01/14 00:03:04;;;;;;;33.83;22.30;;;;;;;-7.06;63.29;93287.41;523275;28;916;-67
2024/01/14 00:03:20;;;;;;;32.97;22.33;;;;;;;-7.04;63.38;93295.03;521911;28;1098;-67
2024/01/14 00:03:37;;;;;;;33.40;21.40;;;;;;;-7.05;63.00;93288.16;523982;28;1005;-67
2024/01/14 00:03:52;;;;;;;32.38;20.77;;;;;;;-7.06;63.00;93281.31;525987;28;947;-67
2024/01/14 00:04:08;;;;;;;27.27;20.00;;;;;;;-7.07;63.43;93290.53;524712;28;1032;-67
2024/01/14 00:04:23;;;;;;;30.27;20.43;;;;;;;-7.13;63.05;93285.00;523822;28;1403;-67
2024/01/14 00:04:39;;;;;;;29.65;19.75;;;;;;;-7.13;63.44;93289.59;522563;28;1107;-67
2024/01/14 00:04:54;;;;;;;33.03;19.17;;;;;;;-7.15;63.30;93283.94;523908;28;833;-67
2024/01/14 00:05:10;;;;;;;34.25;18.88;;;;;;;-7.16;63.38;93282.44;521581;28;1752;-67
2024/01/14 00:05:25;;;;;;;29.90;19.13;;;;;;;-7.17;63.08;93283.63;523268;28;861;-67
2024/01/14 00:05:41;;;;;;;29.05;19.27;;;;;;;-7.18;63.00;93282.88;523441;28;1441;-67
2024/01/14 00:05:56;;;;;;;29.33;19.47;;;;;;;-7.19;63.09;93283.31;523854;28;1093;-67
2024/01/14 00:06:12;;;;;;;29.45;19.58;;;;;;;-7.19;63.51;93288.69;523773;28;1159;-67
2024/01/14 00:06:27;;;;;;;28.23;18.60;;;;;;;-7.21;63.26;93281.06;523140;28;814;-67
2024/01/14 00:06:43;;;;;;;30.10;18.65;;;;;;;-7.20;63.34;93279.88;521981;28;897;-67
2024/01/14 00:06:58;;;;;;;29.30;18.50;;;;;;;-7.20;63.38;93279.13;521681;28;857;-67
2024/01/14 00:07:14;;;;;;;29.93;18.50;;;;;;;-7.19;63.17;93284.06;521590;28;798;-67
2024/01/14 00:07:29;;;;;;;31.48;18.23;;;;;;;-7.17;63.22;93286.31;523316;28;822;-67
2024/01/14 00:07:45;;;;;;;28.03;17.57;;;;;;;-7.16;63.17;93283.19;523701;28;857;-67
2024/01/14 00:08:00;;;;;;;27.63;18.20;;;;;;;-7.18;63.39;93280.19;522245;28;1415;-67
2024/01/14 00:08:16;;;;;;;25.88;18.15;;;;;;;-7.20;63.31;93287.19;523241;28;791;-67
2024/01/14 00:08:31;;;;;;;27.73;18.17;;;;;;;-7.24;63.25;93283.88;522436;28;782;-67
2024/01/14 00:08:46;;;;;;;31.27;19.85;;;;;;;-7.26;63.39;93284.34;521527;28;779;-67
2024/01/14 00:09:02;;;;;;;30.87;19.80;;;;;;;-7.27;63.30;93284.75;523015;28;974;-67
2024/01/14 00:09:18;;;;;;;29.60;19.05;;;;;;;-7.29;63.37;93290.56;523642;28;944;-67
2024/01/14 00:09:33;;;;;;;29.03;18.77;;;;;;;-7.42;63.33;93273.81;523856;28;962;-67
2024/01/14 00:09:48;;;;;;;30.88;18.52;;;;;;;-7.31;63.63;93286.81;523760;28;786;-67
2024/01/14 00:10:05;;;;;;;29.67;19.10;;;;;;;-7.30;63.28;93288.31;522580;28;861;-67
2024/01/14 00:10:21;;;;;;;27.65;18.23;;;;;;;-7.31;63.28;93284.13;521900;28;882;-67
2024/01/14 00:10:36;;;;;;;28.02;17.83;;;;;;;-7.56;63.49;93249.44;522995;28;1614;-67
2024/01/14 00:10:52;;;;;;;30.70;18.67;;;;;;;-7.30;63.46;93288.31;522747;28;806;-67
2024/01/14 00:11:07;;;;;;;32.28;18.75;;;;;;;-7.29;63.38;93292.50;522797;28;997;-67
2024/01/14 00:11:23;;;;;;;27.80;18.20;;;;;;;-7.36;63.31;93280.09;522628;28;846;-67
2024/01/14 00:11:39;;;;;;;26.35;17.92;;;;;;;-7.48;63.55;93294.34;522968;28;770;-67
2024/01/14 00:11:54;;;;;;;28.33;18.58;;;;;;;-7.56;63.52;93290.41;521835;28;904;-67
2024/01/14 00:12:10;;;;;;;28.47;19.03;;;;;;;-7.58;63.76;93289.34;521774;28;821;-67
2024/01/14 00:12:25;;;;;;;26.40;18.95;;;;;;;-7.57;63.77;93286.22;523006;28;837;-67
2024/01/14 00:12:41;;;;;;;27.63;18.95;;;;;;;-7.54;64.02;93288.03;523457;28;1017;-67
2024/01/14 00:12:56;;;;;;;27.77;18.60;;;;;;;-7.50;63.92;93290.59;523683;28;778;-67
2024/01/14 00:13:12;;;;;;;27.20;18.30;;;;;;;-7.47;63.86;93287.78;523061;28;1734;-67
2024/01/14 00:13:27;;;;;;;28.55;18.50;;;;;;;-7.44;63.53;93278.09;522580;28;866;-67
2024/01/14 00:13:43;;;;;;;30.58;18.45;;;;;;;-7.42;63.66;93281.84;521556;28;865;-67
2024/01/14 00:13:58;;;;;;;29.23;18.13;;;;;;;-7.40;63.91;93284.84;521618;28;770;-67
2024/01/14 00:14:14;;;;;;;28.13;18.27;;;;;;;-7.38;63.45;93290.50;521616;28;958;-67
2024/01/14 00:14:29;;;;;;;27.55;18.00;;;;;;;-7.36;63.31;93282.03;523422;28;1960;-68
2024/01/14 00:14:44;;;;;;;26.80;17.70;;;;;;;-7.33;63.42;93281.16;523832;28;817;-67
2024/01/14 00:15:00;;;;;;;29.63;17.80;;;;;;;-7.30;63.18;93282.97;523820;28;869;-67
2024/01/14 00:15:17;;;;;;;29.50;18.30;;;;;;;-7.29;63.39;93284.44;523865;28;759;-67
2024/01/14 00:15:33;;;;;;;26.90;18.45;;;;;;;-7.27;62.98;93282.81;523894;28;964;-67
2024/01/14 00:15:48;;;;;;;27.00;18.37;;;;;;;-7.25;62.95;93285.06;523833;28;833;-67
2024/01/14 00:16:04;;;;;;;27.35;18.33;;;;;;;-7.24;62.94;93283.88;523673;28;1207;-67
2024/01/14 00:16:20;;;;;;;28.25;18.50;;;;;;;-7.21;62.97;93288.38;523848;28;952;-67
2024/01/14 00:16:35;;;;;;;27.80;18.23;;;;;;;-7.21;62.77;93283.75;524087;28;840;-67
2024/01/14 00:16:51;;;;;;;29.10;18.05;;;;;;;-7.19;62.62;93289.41;523917;28;786;-67
2024/01/14 00:17:06;;;;;;;31.07;18.47;;;;;;;-7.18;62.65;93285.56;523791;28;833;-67
2024/01/14 00:17:21;;;;;;;28.02;18.15;;;;;;;-7.18;62.84;93280.19;524142;28;881;-67
2024/01/14 00:17:37;;;;;;;28.17;17.93;;;;;;;-7.16;62.61;93277.81;521257;28;1898;-67
2024/01/14 00:17:52;;;;;;;26.75;17.80;;;;;;;-7.15;62.84;93275.88;523587;28;900;-67
2024/01/14 00:18:08;;;;;;;25.33;17.67;;;;;;;-7.13;62.32;93281.56;521712;28;843;-67
2024/01/14 00:18:23;;;;;;;27.63;17.90;;;;;;;-7.13;62.52;93287.69;522448;28;789;-67
2024/01/14 00:18:39;;;;;;;25.43;16.80;;;;;;;-7.12;62.52;93283.03;521791;28;806;-68
2024/01/14 00:18:54;;;;;;;28.25;17.48;;;;;;;-7.11;62.50;93284.53;521678;28;813;-68
2024/01/14 00:19:10;;;;;;;32.33;18.60;;;;;;;-7.11;62.65;93284.53;522610;28;927;-68
2024/01/14 00:19:25;;;;;;;28.97;16.80;;;;;;;-7.11;62.41;93282.63;524175;28;857;-68
2024/01/14 00:19:41;;;;;;;26.90;16.83;;;;;;;-7.09;62.64;93285.59;522340;28;790;-68
2024/01/14 00:19:56;;;;;;;25.47;17.00;;;;;;;-7.08;62.39;93286.38;521682;28;823;-68
2024/01/14 00:20:12;;;;;;;25.20;15.80;;;;;;;-7.07;62.28;93290.53;522032;28;1693;-68
2024/01/14 00:20:27;;;;;;;26.10;16.03;;;;;;;-7.05;62.11;93288.16;523298;28;774;-68
2024/01/14 00:20:43;;;;;;;24.77;16.13;;;;;;;-7.06;62.62;93289.34;522662;28;969;-67
2024/01/14 00:20:58;;;;;;;23.95;16.15;;;;;;;-7.08;62.67;93294.41;523845;28;802;-68
2024/01/14 00:21:13;;;;;;;25.73;16.63;;;;;;;-7.10;62.20;93286.03;522581;28;861;-68
2024/01/14 00:21:29;;;;;;;26.33;17.00;;;;;;;-7.10;62.47;93283.34;523379;28;981;-68
2024/01/14 00:21:44;;;;;;;25.73;17.33;;;;;;;-7.11;62.36;93288.00;523866;28;838;-68
2024/01/14 00:22:00;;;;;;;25.17;16.90;;;;;;;-7.09;62.54;93288.28;523875;28;774;-68
2024/01/14 00:22:16;;;;;;;23.53;15.47;;;;;;;-7.10;62.51;93284.09;523063;28;860;-67
2024/01/14 00:22:31;;;;;;;22.95;15.18;;;;;;;-7.14;62.81;93291.53;522120;28;1053;-67
2024/01/14 00:22:47;;;;;;;24.13;15.73;;;;;;;-7.15;62.53;93292.75;521791;28;850;-67
2024/01/14 00:23:02;;;;;;;24.07;15.20;;;;;;;-7.18;62.38;93285.56;521866;28;1797;-68
2024/01/14 00:23:18;;;;;;;22.67;14.82;;;;;;;-7.20;62.78;93279.88;523385;28;988;-68
2024/01/14 00:23:34;;;;;;;21.63;15.20;;;;;;;-7.18;62.65;93279.44;522189;28;828;-68
2024/01/14 00:23:49;;;;;;;25.23;16.10;;;;;;;-7.17;62.61;93287.03;521589;28;929;-67
2024/01/14 00:24:05;;;;;;;24.73;15.85;;;;;;;-7.19;62.52;93286.72;523159;28;985;-67
2024/01/14 00:24:21;;;;;;;22.83;14.90;;;;;;;-7.22;62.55;93279.59;523869;28;796;-67
2024/01/14 00:24:36;;;;;;;26.80;15.85;;;;;;;-7.31;62.42;93278.78;523714;28;1048;-68
2024/01/14 00:24:52;;;;;;;26.13;16.00;;;;;;;-7.40;62.65;93276.78;523873;28;880;-68
2024/01/14 00:25:08;;;;;;;23.37;15.57;;;;;;;-7.45;63.18;93282.00;522367;28;825;-67
2024/01/14 00:25:23;;;;;;;24.38;15.85;;;;;;;-7.50;63.21;93283.31;522560;28;877;-67
2024/01/14 00:25:39;;;;;;;27.40;16.08;;;;;;;-7.54;63.37;93290.72;522232;28;1729;-68
2024/01/14 00:25:54;;;;;;;26.53;15.73;;;;;;;-7.55;63.37;93286.53;521855;28;794;-68
2024/01/14 00:26:10;;;;;;;27.48;16.05;;;;;;;-7.56;63.52;93278.94;522987;28;791;-68
2024/01/14 00:26:27;;;;;;;28.30;17.23;;;;;;;-7.57;63.23;93280.88;523578;28;2202;-68
2024/01/14 00:26:43;;;;;;;24.35;16.52;;;;;;;-7.58;63.27;93278.63;522130;28;854;-68
2024/01/14 00:26:58;;;;;;;24.80;16.20;;;;;;;-7.57;63.68;93285.47;521626;28;833;-68
2024/01/14 00:27:13;;;;;;;27.17;16.67;;;;;;;-7.57;63.53;93280.13;521608;28;1076;-68
2024/01/14 00:27:29;;;;;;;27.13;16.93;;;;;;;-7.55;63.69;93285.78;523652;28;841;-68
2024/01/14 00:27:44;;;;;;;26.88;16.70;;;;;;;-7.56;63.38;93279.69;522545;28;782;-68
2024/01/14 00:28:02;;;;;;;27.40;16.07;;;;;;;-7.55;63.34;93277.75;521634;28;925;-68
2024/01/14 00:28:17;;;;;;;27.80;16.40;;;;;;;-7.63;63.58;93273.81;521600;28;929;-68
2024/01/14 00:28:34;;;;;;;26.95;16.23;;;;;;;-7.69;63.91;93278.25;523777;28;825;-68
2024/01/14 00:28:49;;;;;;;26.30;15.85;;;;;;;-7.75;63.82;93281.50;523652;28;1152;-68
2024/01/14 00:29:05;;;;;;;24.95;15.55;;;;;;;-7.78;63.82;93278.94;523713;28;789;-67
2024/01/14 00:29:21;;;;;;;24.98;15.30;;;;;;;-7.78;64.16;93282.38;524035;28;1003;-68
2024/01/14 00:29:37;;;;;;;24.25;15.50;;;;;;;-7.77;63.96;93283.09;523755;28;873;-68
2024/01/14 00:29:57;;;;;;;23.02;15.60;;;;;;;-7.79;64.30;93280.13;523907;28;864;-68
2024/01/14 00:30:13;;;;;;;26.58;16.02;;;;;;;-7.81;64.00;93277.13;522797;28;1674;-69
2024/01/14 00:30:28;;;;;;;26.65;15.52;;;;;;;-7.82;64.25;93279.06;522678;28;960;-67
2024/01/14 00:30:44;;;;;;;25.17;14.90;;;;;;;-7.82;63.98;93278.31;521615;28;852;-67
2024/01/14 00:30:59;;;;;;;22.23;13.90;;;;;;;-7.84;64.22;93272.66;521536;28;866;-67
2024/01/14 00:31:14;;;;;;;24.80;14.90;;;;;;;-7.82;64.34;93273.69;522634;28;1055;-66
2024/01/14 00:31:30;;;;;;;25.80;15.43;;;;;;;-7.80;64.19;93281.31;523565;28;869;-67
2024/01/14 00:31:46;;;;;;;24.80;15.37;;;;;;;-7.78;64.09;93282.38;523756;28;810;-67
2024/01/14 00:32:02;;;;;;;24.05;15.07;;;;;;;-7.78;64.10;93277.03;523449;28;1085;-67
2024/01/14 00:32:18;;;;;;;23.20;14.85;;;;;;;-7.81;64.12;93277.88;522351;28;920;-67
2024/01/14 00:32:34;;;;;;;21.95;14.18;;;;;;;-7.81;64.51;93277.88;523655;28;834;-66
2024/01/14 00:32:49;;;;;;;22.50;14.77;;;;;;;-7.79;64.12;93277.44;523557;28;1666;-67
2024/01/14 00:33:04;;;;;;;24.23;15.90;;;;;;;-7.78;64.35;93268.97;522826;28;798;-67
2024/01/14 00:33:20;;;;;;;24.55;15.77;;;;;;;-7.88;64.15;93275.44;521736;28;829;-67
2024/01/14 00:33:35;;;;;;;24.80;15.30;;;;;;;-7.93;64.26;93270.66;523423;28;818;-67
2024/01/14 00:33:51;;;;;;;22.42;14.50;;;;;;;-7.94;64.47;93274.50;523404;28;1164;-67
2024/01/14 00:34:07;;;;;;;24.88;15.05;;;;;;;-7.90;64.16;93275.13;521629;28;924;-67
2024/01/14 00:34:22;;;;;;;24.80;15.00;;;;;;;-7.87;64.29;93273.50;522342;28;1922;-66
2024/01/14 00:34:41;;;;;;;21.98;14.00;;;;;;;-7.86;64.46;93267.00;523700;28;944;-67
2024/01/14 00:34:56;;;;;;;24.02;15.02;;;;;;;-7.81;64.16;93272.53;523864;28;846;-66
2024/01/14 00:35:12;;;;;;;23.35;15.15;;;;;;;-7.77;64.41;93261.66;521762;28;1405;-67
2024/01/14 00:35:27;;;;;;;23.33;14.53;;;;;;;-7.78;64.47;93279.69;523246;28;1072;-66
2024/01/14 00:35:43;;;;;;;23.25;14.57;;;;;;;-7.77;64.42;93272.38;522480;28;1003;-67
2024/01/14 00:36:02;;;;;;;23.90;14.93;;;;;;;-7.75;64.23;93270.00;523806;28;791;-68
2024/01/14 00:36:18;;;;;;;23.80;14.93;;;;;;;-7.75;64.22;93275.38;523818;28;790;-68
2024/01/14 00:36:40;;;;;;;22.27;14.23;;;;;;;-7.74;64.16;93274.97;522542;28;810;-69
2024/01/14 00:36:55;;;;;;;24.15;14.70;;;;;;;-7.72;64.26;93275.28;521753;28;881;-69
2024/01/14 00:37:11;;;;;;;23.63;14.30;;;;;;;-7.69;64.33;93275.56;521996;28;1744;-69
2024/01/14 00:37:26;;;;;;;22.63;14.50;;;;;;;-7.67;64.30;93276.63;523535;28;798;-69
2024/01/14 00:37:42;;;;;;;20.40;14.37;;;;;;;-7.66;64.15;93283.47;522477;28;854;-69
2024/01/14 00:37:59;;;;;;;21.33;13.83;;;;;;;-7.66;64.12;93280.81;521708;28;842;-69
2024/01/14 00:38:15;;;;;;;23.02;13.70;;;;;;;-7.64;64.11;93280.38;521384;28;1108;-68
2024/01/14 00:38:30;;;;;;;21.63;13.15;;;;;;;-7.62;64.21;93286.78;523048;28;978;-68
2024/01/14 00:38:46;;;;;;;20.40;13.00;;;;;;;-7.62;64.05;93284.09;521786;28;822;-68
2024/01/14 00:39:02;;;;;;;20.33;13.02;;;;;;;-7.63;63.64;93287.97;521792;28;785;-68
2024/01/14 00:39:18;;;;;;;21.13;13.45;;;;;;;-7.62;63.54;93278.00;522871;28;920;-68
2024/01/14 00:39:39;;;;;;;20.70;14.30;;;;;;;-7.60;63.40;93279.03;524167;28;805;-68
2024/01/14 00:39:55;;;;;;;23.10;14.43;;;;;;;-7.58;63.37;93289.34;522496;28;1236;-68
2024/01/14 00:40:10;;;;;;;22.38;13.55;;;;;;;-7.58;62.95;93287.44;523069;28;1772;-69
2024/01/14 00:40:26;;;;;;;22.97;13.53;;;;;;;-7.59;62.77;93283.25;522549;28;1004;-68
2024/01/14 00:40:41;;;;;;;23.88;14.00;;;;;;;-7.61;62.70;93276.81;522213;28;920;-68
2024/01/14 00:40:57;;;;;;;21.00;14.13;;;;;;;-7.60;63.03;93275.63;523669;28;746;-68
2024/01/14 00:41:12;;;;;;;20.90;13.90;;;;;;;-7.59;62.61;93283.25;522738;28;853;-68
2024/01/14 00:41:28;;;;;;;20.05;13.63;;;;;;;-7.58;62.74;93281.31;521736;28;1228;-67
2024/01/14 00:41:43;;;;;;;19.10;14.00;;;;;;;-7.57;62.61;93282.78;523154;28;1049;-67
2024/01/14 00:41:59;;;;;;;21.40;14.13;;;;;;;-7.57;62.51;93282.78;523431;28;893;-67
2024/01/14 00:42:14;;;;;;;23.15;13.90;;;;;;;-7.54;62.56;93273.88;523407;28;889;-67
2024/01/14 00:42:30;;;;;;;25.07;15.23;;;;;;;-7.53;62.31;93275.38;523412;28;918;-67
2024/01/14 00:42:45;;;;;;;24.98;15.52;;;;;;;-7.53;62.42;93280.72;523563;28;826;-67
2024/01/14 00:43:00;;;;;;;23.90;14.93;;;;;;;-7.55;62.33;93275.81;523130;28;1184;-67
2024/01/14 00:43:16;;;;;;;23.50;15.10;;;;;;;-7.57;62.18;93272.81;521813;28;1451;-67
2024/01/14 00:43:31;;;;;;;22.77;14.83;;;;;;;-7.56;61.99;93279.69;522955;28;778;-67
2024/01/14 00:43:47;;;;;;;23.80;15.00;;;;;;;-7.56;61.79;93277.00;521568;28;806;-67
2024/01/14 00:44:02;;;;;;;22.63;13.87;;;;;;;-7.56;62.11;93281.63;521575;28;869;-67
2024/01/14 00:44:18;;;;;;;21.75;13.93;;;;;;;-7.60;61.86;93270.28;522036;28;924;-67
2024/01/14 00:44:34;;;;;;;21.60;14.97;;;;;;;-7.65;62.05;93276.19;523996;28;845;-67
2024/01/14 00:44:49;;;;;;;22.90;15.23;;;;;;;-7.64;62.06;93275.03;522713;28;1290;-67
2024/01/14 00:45:05;;;;;;;23.35;15.27;;;;;;;-7.84;62.35;93243.19;523611;28;810;-67
2024/01/14 00:45:21;;;;;;;23.67;15.77;;;;;;;-7.67;62.14;93276.63;523843;28;829;-67
2024/01/14 00:45:37;;;;;;;24.67;15.98;;;;;;;-7.66;62.26;93272.75;523685;28;1112;-67
2024/01/14 00:45:53;;;;;;;23.53;15.90;;;;;;;-7.64;62.38;93275.03;523652;28;802;-67
2024/01/14 00:46:08;;;;;;;27.42;16.33;;;;;;;-7.64;62.54;93275.03;523606;28;786;-67
2024/01/14 00:46:24;;;;;;;28.52;16.10;;;;;;;-7.65;62.59;93278.88;523875;28;1318;-67
2024/01/14 00:46:39;;;;;;;26.87;16.53;;;;;;;-7.68;62.28;93279.75;523665;28;910;-67
2024/01/14 00:46:54;;;;;;;28.15;17.70;;;;;;;-7.66;62.47;93272.00;523694;28;842;-67
2024/01/14 00:47:10;;;;;;;26.93;18.17;;;;;;;-7.66;62.22;93277.38;523641;28;874;-67
2024/01/14 00:47:30;;;;;;;28.27;18.92;;;;;;;-7.64;62.42;93277.72;524017;28;1106;-67
2024/01/14 00:47:45;;;;;;;29.73;19.02;;;;;;;-7.62;62.25;93278.00;523693;28;1229;-67
2024/01/14 00:48:00;;;;;;;29.83;17.75;;;;;;;-7.60;62.38;93272.97;522117;28;1685;-67
2024/01/14 00:48:16;;;;;;;29.33;17.67;;;;;;;-7.58;62.27;93273.28;523193;28;754;-67
2024/01/14 00:48:31;;;;;;;27.50;17.60;;;;;;;-7.55;62.42;93264.34;522420;28;802;-67
2024/01/14 00:48:47;;;;;;;26.70;17.10;;;;;;;-7.55;61.95;93267.00;521652;28;796;-67
2024/01/14 00:49:02;;;;;;;27.95;17.25;;;;;;;-7.53;62.04;93278.03;522854;28;893;-67
2024/01/14 00:49:18;;;;;;;28.97;18.07;;;;;;;-7.50;62.00;93266.47;523691;28;759;-67
2024/01/14 00:49:33;;;;;;;28.92;18.20;;;;;;;-7.49;62.15;93265.28;523868;28;1211;-67
2024/01/14 00:49:49;;;;;;;29.40;17.83;;;;;;;-7.48;61.98;93266.75;522234;28;1417;-67
2024/01/14 00:50:04;;;;;;;30.48;18.52;;;;;;;-7.48;61.99;93267.53;522507;28;798;-67
2024/01/14 00:50:20;;;;;;;31.50;18.70;;;;;;;-7.48;62.04;93264.09;521717;28;798;-67
2024/01/14 00:50:35;;;;;;;30.15;18.27;;;;;;;-7.48;62.31;93261.41;523013;28;1614;-67
2024/01/14 00:50:51;;;;;;;31.70;19.43;;;;;;;-7.48;62.05;93259.47;522503;28;806;-66
2024/01/14 00:51:06;;;;;;;32.15;19.48;;;;;;;-7.46;62.05;93262.47;522909;28;834;-67
2024/01/14 00:51:22;;;;;;;28.50;17.47;;;;;;;-7.52;61.93;93256.19;522899;28;1305;-66
2024/01/14 00:51:37;;;;;;;28.17;17.80;;;;;;;-7.55;61.94;93261.66;522191;28;771;-66
2024/01/14 00:51:52;;;;;;;30.27;19.83;;;;;;;-7.54;61.91;93265.84;523653;28;1037;-66
2024/01/14 00:52:08;;;;;;;29.50;20.00;;;;;;;-7.54;62.06;93261.22;523675;28;798;-67
2024/01/14 00:52:24;;;;;;;30.03;19.40;;;;;;;-7.53;62.25;93264.66;524005;28;775;-67
2024/01/14 00:52:39;;;;;;;33.40;19.85;;;;;;;-7.50;62.03;93261.84;523262;28;790;-67
2024/01/14 00:52:56;;;;;;;36.20;21.60;;;;;;;-7.49;61.83;93265.28;522268;28;1351;-67
2024/01/14 00:53:11;;;;;;;38.72;23.83;;;;;;;-7.49;62.02;93257.97;523294;28;1721;-67
2024/01/14 00:53:27;;;;;;;38.67;23.58;;;;;;;-7.50;62.08;93255.75;523300;28;810;-67
2024/01/14 00:53:42;;;;;;;33.77;21.50;;;;;;;-7.51;62.28;93254.25;521674;28;1295;-67
2024/01/14 00:53:57;;;;;;;33.43;21.07;;;;;;;-7.49;62.34;93257.25;521742;28;869;-67
2024/01/14 00:54:13;;;;;;;35.78;22.20;;;;;;;-7.48;62.22;93261.41;521693;28;783;-67
2024/01/14 00:54:28;;;;;;;34.80;22.03;;;;;;;-7.48;62.50;93258.72;523755;28;1926;-67
2024/01/14 00:54:44;;;;;;;34.30;21.42;;;;;;;-7.48;62.12;93256.03;523717;28;769;-67
2024/01/14 00:54:59;;;;;;;32.23;20.97;;;;;;;-7.51;61.85;93254.97;523778;28;809;-67
2024/01/14 00:55:15;;;;;;;30.48;20.65;;;;;;;-7.58;62.25;93257.94;523626;28;1010;-67
2024/01/14 00:55:30;;;;;;;31.00;20.57;;;;;;;-7.69;62.13;93259.50;523897;28;774;-67
2024/01/14 00:55:46;;;;;;;32.95;20.77;;;;;;;-7.73;62.42;93254.28;523791;28;1122;-67
2024/01/14 00:56:02;;;;;;;33.13;20.50;;;;;;;-7.76;62.59;93258.56;523772;28;853;-67
2024/01/14 00:56:17;;;;;;;32.85;21.45;;;;;;;-7.81;62.33;93258.38;523778;28;834;-66
2024/01/14 00:56:33;;;;;;;32.60;21.57;;;;;;;-7.86;62.68;93259.69;524111;28;853;-67
2024/01/14 00:56:48;;;;;;;31.63;21.77;;;;;;;-7.88;62.48;93258.59;523739;28;1180;-67
2024/01/14 00:57:04;;;;;;;33.10;22.75;;;;;;;-7.93;62.70;93259.94;522679;28;1618;-67
2024/01/14 00:57:19;;;;;;;31.90;21.83;;;;;;;-7.98;63.03;93255.13;522176;28;826;-67
2024/01/14 00:57:35;;;;;;;31.30;20.70;;;;;;;-8.04;62.81;93258.81;522497;28;890;-67
2024/01/14 00:57:50;;;;;;;29.73;19.27;;;;;;;-8.06;62.82;93253.91;521541;28;787;-67
2024/01/14 00:58:05;;;;;;;26.88;17.00;;;;;;;-8.16;62.92;93252.31;521308;28;873;-67
2024/01/14 00:58:21;;;;;;;27.40;17.07;;;;;;;-8.14;63.06;93257.25;521855;28;1245;-68
2024/01/14 00:58:36;;;;;;;27.70;17.73;;;;;;;-8.17;63.19;93258.84;523220;28;1024;-68
2024/01/14 00:58:52;;;;;;;26.27;16.17;;;;;;;-8.18;63.27;93254.66;523726;28;889;-68
2024/01/14 00:59:07;;;;;;;25.17;15.23;;;;;;;-8.19;63.08;93255.13;523615;28;873;-68
2024/01/14 00:59:23;;;;;;;24.57;15.30;;;;;;;-8.19;63.15;93253.19;522516;28;825;-68
2024/01/14 00:59:38;;;;;;;24.40;15.88;;;;;;;-8.18;63.31;93260.03;523745;28;929;-67
2024/01/14 00:59:53;;;;;;;25.33;16.77;;;;;;;-8.18;63.12;93252.00;523771;28;845;-68
2024/01/14 01:00:09;;;;;;;27.75;17.40;;;;;;;-8.18;63.23;93257.34;523514;28;1131;-68
2024/01/14 01:00:25;;;;;;;29.30;17.30;;;;;;;-8.16;63.25;93257.66;524113;28;876;-68
2024/01/14 01:00:40;;;;;;;26.05;15.93;;;;;;;-8.17;63.17;93253.50;522551;28;1772;-67
2024/01/14 01:00:56;;;;;;;24.30;15.87;;;;;;;-8.12;63.15;93257.56;523005;28;990;-67
2024/01/14 01:01:11;;;;;;;28.00;16.80;;;;;;;-8.10;63.13;93263.94;522391;28;869;-67
2024/01/14 01:01:27;;;;;;;27.38;16.83;;;;;;;-8.09;63.19;93254.75;522917;28;829;-67
2024/01/14 01:01:42;;;;;;;23.27;15.50;;;;;;;-8.07;62.98;93265.78;522550;28;833;-67
2024/01/14 01:01:58;;;;;;;24.25;15.32;;;;;;;-8.06;62.96;93261.16;521713;28;822;-67
2024/01/14 01:02:13;;;;;;;22.93;15.43;;;;;;;-8.06;63.02;93261.16;521879;28;1152;-67
2024/01/14 01:02:29;;;;;;;23.92;15.35;;;;;;;-8.06;62.85;93256.56;523505;28;1039;-67
2024/01/14 01:02:44;;;;;;;27.27;16.13;;;;;;;-8.06;62.75;93253.91;522649;28;738;-67
2024/01/14 01:03:00;;;;;;;25.03;15.77;;;;;;;-8.05;63.00;93259.97;521551;28;873;-68
2024/01/14 01:03:19;;;;;;;23.55;15.65;;;;;;;-8.08;62.85;93253.59;521571;28;904;-68
2024/01/14 01:03:37;;;;;;;25.13;16.50;;;;;;;-8.04;62.90;93254.19;523187;28;1017;-68
2024/01/14 01:03:53;;;;;;;32.30;18.20;;;;;;;-8.02;62.86;93251.06;522513;28;1724;-68
2024/01/14 01:04:09;;;;;;;36.35;19.17;;;;;;;-7.98;62.99;93260.50;523025;28;962;-68
2024/01/14 01:04:25;;;;;;;29.23;17.70;;;;;;;-7.97;62.82;93256.63;522979;28;1072;-68
2024/01/14 01:04:41;;;;;;;23.52;16.90;;;;;;;-7.95;62.75;93250.84;525555;28;1137;-67
2024/01/14 01:05:00;;;;;;;27.33;17.73;;;;;;;-7.93;62.80;93248.47;524037;28;821;-67
2024/01/14 01:05:15;;;;;;;25.67;16.77;;;;;;;-7.90;62.80;93255.63;523573;28;1063;-67
2024/01/14 01:05:31;;;;;;;25.58;16.90;;;;;;;-7.95;62.72;93248.16;523848;28;790;-67
2024/01/14 01:05:47;;;;;;;30.02;18.30;;;;;;;-7.89;62.67;93259.81;523178;28;1211;-67
2024/01/14 01:06:03;;;;;;;32.08;18.83;;;;;;;-7.88;62.57;93255.94;521635;28;798;-67
2024/01/14 01:06:19;;;;;;;29.98;18.50;;;;;;;-7.87;62.55;93252.84;521523;28;782;-67
2024/01/14 01:06:35;;;;;;;30.33;18.55;;;;;;;-7.86;62.33;93253.59;523228;28;822;-67
2024/01/14 01:06:50;;;;;;;30.70;18.07;;;;;;;-7.84;62.43;93257.31;523604;28;790;-67
2024/01/14 01:07:06;;;;;;;29.40;17.55;;;;;;;-7.85;62.22;93247.78;523458;28;904;-67
2024/01/14 01:07:22;;;;;;;29.77;18.00;;;;;;;-7.85;62.28;93253.16;523645;28;1008;-67
2024/01/14 01:07:38;;;;;;;27.27;17.88;;;;;;;-7.89;62.29;93255.19;521592;28;886;-67
2024/01/14 01:07:53;;;;;;;24.98;16.95;;;;;;;-7.89;62.23;93249.84;521588;28;822;-67
2024/01/14 01:08:09;;;;;;;24.93;16.73;;;;;;;-7.90;62.40;93250.25;521539;28;833;-67
2024/01/14 01:08:24;;;;;;;26.95;16.63;;;;;;;-7.95;62.14;93251.56;522726;28;1737;-67
2024/01/14 01:08:40;;;;;;;28.50;16.60;;;;;;;-8.00;62.28;93254.06;521677;28;766;-67
2024/01/14 01:08:56;;;;;;;28.90;17.33;;;;;;;-8.09;62.45;93254.75;521707;28;903;-67
2024/01/14 01:09:12;;;;;;;28.13;17.30;;;;;;;-8.16;62.65;93246.94;523609;28;807;-67
2024/01/14 01:09:27;;;;;;;28.70;17.13;;;;;;;-8.17;62.77;93248.16;523199;28;857;-67
2024/01/14 01:09:43;;;;;;;26.97;17.40;;;;;;;-8.16;62.58;93252.31;523512;28;826;-67
2024/01/14 01:09:58;;;;;;;24.85;16.52;;;;;;;-8.14;62.71;93247.25;523620;28;845;-67
2024/01/14 01:10:14;;;;;;;24.00;15.07;;;;;;;-8.11;62.85;93251.75;523511;28;899;-67
2024/01/14 01:10:29;;;;;;;24.30;14.57;;;;;;;-8.09;62.74;93252.06;523780;28;826;-67
2024/01/14 01:10:45;;;;;;;23.10;14.27;;;;;;;-8.07;62.74;93247.03;523401;28;934;-67
2024/01/14 01:11:01;;;;;;;24.38;15.13;;;;;;;-8.04;62.92;93254.19;522314;28;1527;-67
2024/01/14 01:11:16;;;;;;;23.83;15.15;;;;;;;-8.04;62.78;93250.78;522204;28;1808;-67
2024/01/14 01:11:32;;;;;;;25.65;14.88;;;;;;;-8.04;62.65;93251.53;522479;28;1140;-67
2024/01/14 01:11:47;;;;;;;27.90;17.10;;;;;;;-8.05;62.40;93250.00;523286;28;1179;-67
2024/01/14 01:12:03;;;;;;;28.58;19.05;;;;;;;-8.04;62.60;93256.13;522433;28;802;-67
2024/01/14 01:12:19;;;;;;;31.42;19.75;;;;;;;-8.03;62.69;93242.28;523098;28;1211;-67
2024/01/14 01:12:34;;;;;;;30.90;19.33;;;;;;;-8.03;62.66;93250.31;523847;28;1121;-67
2024/01/14 01:12:50;;;;;;;30.58;19.05;;;;;;;-8.02;62.97;93245.72;523642;28;833;-67
2024/01/14 01:13:05;;;;;;;30.50;19.53;;;;;;;-8.03;62.70;93250.31;522620;28;853;-68
2024/01/14 01:13:20;;;;;;;32.05;19.23;;;;;;;-8.03;62.76;93250.31;523010;28;1124;-68
2024/01/14 01:13:36;;;;;;;33.90;18.93;;;;;;;-8.01;62.94;93245.28;522886;28;1550;-68
2024/01/14 01:13:52;;;;;;;32.13;19.30;;;;;;;-7.96;62.83;93249.34;522341;28;805;-68
2024/01/14 01:14:07;;;;;;;35.07;19.50;;;;;;;-7.95;62.75;93254.25;522814;28;878;-68
2024/01/14 01:14:23;;;;;;;33.50;18.88;;;;;;;-7.96;62.51;93249.34;522330;28;1976;-68
2024/01/14 01:14:38;;;;;;;27.30;18.07;;;;;;;-8.02;62.52;93251.84;522988;28;924;-67